sensor_id;sensor_type;location;lat;lon;timestamp;P1;durP1;ratioP1;P2;durP2;ratioP2
9117;SDS011;4594;50.994;7.126;2023-03-01T00:01:28;7.80;;;6.95;;
9117;SDS011;4594;50.994;7.126;2023-03-01T00:03:56;7.57;;;6.80;;
9117;SDS011;4594;50.994;7.126;2023-03-01T00:06:23;8.05;;;6.35;;
9117;SDS011;4594;50.994;7.126;2023-03-01T00:08:49;7.43;;;6.75;;
9117;SDS011;4594;50.994;7.126;2023-03-01T00:13:53;7.68;;;6.47;;
9117;SDS011;4594;50.994;7.126;2023-03-01T00:16:23;8.40;;;7.23;;
9117;SDS011;4594;50.994;7.126;2023-03-01T00:18:53;7.53;;;6.70;;
9117;SDS011;4594;50.994;7.126;2023-03-01T00:21:20;6.90;;;6.22;;
9117;SDS011;4594;50.994;7.126;2023-03-01T00:23:47;7.72;;;7.03;;
9117;SDS011;4594;50.994;7.126;2023-03-01T00:26:13;6.70;;;6.10;;
9117;SDS011;4594;50.994;7.126;2023-03-01T00:28:41;10.65;;;7.10;;
9117;SDS011;4594;50.994;7.126;2023-03-01T00:31:09;7.95;;;5.75;;
9117;SDS011;4594;50.994;7.126;2023-03-01T00:33:44;7.32;;;6.60;;
9117;SDS011;4594;50.994;7.126;2023-03-01T00:36:11;6.30;;;5.90;;
9117;SDS011;4594;50.994;7.126;2023-03-01T00:38:41;6.78;;;6.18;;
9117;SDS011;4594;50.994;7.126;2023-03-01T00:41:10;8.20;;;6.80;;
9117;SDS011;4594;50.994;7.126;2023-03-01T00:43:39;6.05;;;5.60;;
9117;SDS011;4594;50.994;7.126;2023-03-01T00:46:09;6.73;;;6.13;;
9117;SDS011;4594;50.994;7.126;2023-03-01T00:48:41;6.90;;;6.32;;
9117;SDS011;4594;50.994;7.126;2023-03-01T00:51:11;6.93;;;6.27;;
9117;SDS011;4594;50.994;7.126;2023-03-01T00:53:43;7.50;;;6.20;;
9117;SDS011;4594;50.994;7.126;2023-03-01T00:56:11;6.90;;;6.07;;
9117;SDS011;4594;50.994;7.126;2023-03-01T00:58:39;6.32;;;5.82;;
9117;SDS011;4594;50.994;7.126;2023-03-01T01:03:44;6.72;;;6.13;;
9117;SDS011;4594;50.994;7.126;2023-03-01T01:06:15;8.60;;;6.60;;
9117;SDS011;4594;50.994;7.126;2023-03-01T01:08:46;8.75;;;6.43;;
9117;SDS011;4594;50.994;7.126;2023-03-01T01:11:13;8.07;;;6.63;;
9117;SDS011;4594;50.994;7.126;2023-03-01T01:13:39;8.70;;;6.90;;
9117;SDS011;4594;50.994;7.126;2023-03-01T01:16:06;7.55;;;6.53;;
9117;SDS011;4594;50.994;7.126;2023-03-01T01:18:33;7.30;;;6.60;;
9117;SDS011;4594;50.994;7.126;2023-03-01T01:21:03;7.32;;;6.28;;
9117;SDS011;4594;50.994;7.126;2023-03-01T01:23:32;6.95;;;6.35;;
9117;SDS011;4594;50.994;7.126;2023-03-01T01:26:02;8.30;;;6.63;;
9117;SDS011;4594;50.994;7.126;2023-03-01T01:28:30;8.13;;;6.90;;
9117;SDS011;4594;50.994;7.126;2023-03-01T01:30:56;7.03;;;6.33;;
9117;SDS011;4594;50.994;7.126;2023-03-01T01:33:22;7.17;;;6.47;;
9117;SDS011;4594;50.994;7.126;2023-03-01T01:35:47;7.07;;;6.27;;
9117;SDS011;4594;50.994;7.126;2023-03-01T01:38:13;7.80;;;7.00;;
9117;SDS011;4594;50.994;7.126;2023-03-01T01:40:45;7.87;;;7.10;;
9117;SDS011;4594;50.994;7.126;2023-03-01T01:45:50;11.27;;;9.93;;
9117;SDS011;4594;50.994;7.126;2023-03-01T01:48:23;11.90;;;9.30;;
9117;SDS011;4594;50.994;7.126;2023-03-01T01:51:05;9.15;;;7.55;;
9117;SDS011;4594;50.994;7.126;2023-03-01T01:53:36;7.60;;;6.90;;
9117;SDS011;4594;50.994;7.126;2023-03-01T01:56:04;9.88;;;7.47;;
9117;SDS011;4594;50.994;7.126;2023-03-01T01:58:35;7.03;;;6.35;;
9117;SDS011;4594;50.994;7.126;2023-03-01T02:01:02;8.98;;;7.10;;
9117;SDS011;4594;50.994;7.126;2023-03-01T02:03:31;7.30;;;6.60;;
9117;SDS011;4594;50.994;7.126;2023-03-01T02:06:19;7.88;;;7.07;;
9117;SDS011;4594;50.994;7.126;2023-03-01T02:09:11;7.30;;;6.60;;
9117;SDS011;4594;50.994;7.126;2023-03-01T02:11:40;6.90;;;6.28;;
9117;SDS011;4594;50.994;7.126;2023-03-01T02:14:08;7.22;;;6.60;;
9117;SDS011;4594;50.994;7.126;2023-03-01T02:16:34;6.50;;;6.00;;
9117;SDS011;4594;50.994;7.126;2023-03-01T02:19:00;7.55;;;6.80;;
9117;SDS011;4594;50.994;7.126;2023-03-01T02:21:32;6.53;;;6.03;;
9117;SDS011;4594;50.994;7.126;2023-03-01T02:24:24;7.63;;;6.65;;
9117;SDS011;4594;50.994;7.126;2023-03-01T02:27:00;7.20;;;6.45;;
9117;SDS011;4594;50.994;7.126;2023-03-01T02:29:26;6.63;;;6.07;;
9117;SDS011;4594;50.994;7.126;2023-03-01T02:31:53;6.75;;;6.15;;
9117;SDS011;4594;50.994;7.126;2023-03-01T02:34:23;7.32;;;6.65;;
9117;SDS011;4594;50.994;7.126;2023-03-01T02:36:52;8.25;;;7.40;;
9117;SDS011;4594;50.994;7.126;2023-03-01T02:39:44;7.03;;;6.30;;
9117;SDS011;4594;50.994;7.126;2023-03-01T02:42:18;7.32;;;6.63;;
9117;SDS011;4594;50.994;7.126;2023-03-01T02:44:55;7.10;;;6.40;;
9117;SDS011;4594;50.994;7.126;2023-03-01T02:47:21;7.17;;;6.57;;
9117;SDS011;4594;50.994;7.126;2023-03-01T02:49:47;7.13;;;6.47;;
9117;SDS011;4594;50.994;7.126;2023-03-01T02:55:06;6.65;;;6.00;;
9117;SDS011;4594;50.994;7.126;2023-03-01T02:57:36;7.00;;;6.30;;
9117;SDS011;4594;50.994;7.126;2023-03-01T03:00:08;7.30;;;6.57;;
9117;SDS011;4594;50.994;7.126;2023-03-01T03:02:44;7.85;;;7.07;;
9117;SDS011;4594;50.994;7.126;2023-03-01T03:05:14;8.57;;;7.57;;
9117;SDS011;4594;50.994;7.126;2023-03-01T03:07:44;7.22;;;6.43;;
9117;SDS011;4594;50.994;7.126;2023-03-01T03:10:14;7.95;;;7.20;;
9117;SDS011;4594;50.994;7.126;2023-03-01T03:12:53;7.15;;;6.55;;
9117;SDS011;4594;50.994;7.126;2023-03-01T03:15:25;7.90;;;6.75;;
9117;SDS011;4594;50.994;7.126;2023-03-01T03:17:53;8.05;;;7.18;;
9117;SDS011;4594;50.994;7.126;2023-03-01T03:20:21;7.43;;;6.72;;
9117;SDS011;4594;50.994;7.126;2023-03-01T03:22:52;7.82;;;6.85;;
9117;SDS011;4594;50.994;7.126;2023-03-01T03:25:21;8.48;;;7.57;;
9117;SDS011;4594;50.994;7.126;2023-03-01T03:27:48;8.55;;;7.60;;
9117;SDS011;4594;50.994;7.126;2023-03-01T03:30:21;8.02;;;6.82;;
9117;SDS011;4594;50.994;7.126;2023-03-01T03:32:50;7.82;;;7.03;;
9117;SDS011;4594;50.994;7.126;2023-03-01T03:35:29;7.68;;;6.93;;
9117;SDS011;4594;50.994;7.126;2023-03-01T03:37:59;7.22;;;6.63;;
9117;SDS011;4594;50.994;7.126;2023-03-01T03:40:38;7.63;;;7.03;;
9117;SDS011;4594;50.994;7.126;2023-03-01T03:43:07;8.07;;;7.25;;
9117;SDS011;4594;50.994;7.126;2023-03-01T03:45:38;13.05;;;7.60;;
9117;SDS011;4594;50.994;7.126;2023-03-01T03:48:05;8.15;;;7.00;;
9117;SDS011;4594;50.994;7.126;2023-03-01T03:50:34;8.85;;;7.65;;
9117;SDS011;4594;50.994;7.126;2023-03-01T03:53:01;7.60;;;7.00;;
9117;SDS011;4594;50.994;7.126;2023-03-01T03:55:29;10.82;;;7.47;;
9117;SDS011;4594;50.994;7.126;2023-03-01T03:57:59;8.17;;;7.20;;
9117;SDS011;4594;50.994;7.126;2023-03-01T04:00:27;8.60;;;7.70;;
9117;SDS011;4594;50.994;7.126;2023-03-01T04:02:53;7.78;;;7.00;;
9117;SDS011;4594;50.994;7.126;2023-03-01T04:05:21;8.38;;;7.60;;
9117;SDS011;4594;50.994;7.126;2023-03-01T04:07:47;8.45;;;7.65;;
9117;SDS011;4594;50.994;7.126;2023-03-01T04:10:14;8.50;;;7.50;;
9117;SDS011;4594;50.994;7.126;2023-03-01T04:12:42;7.88;;;7.18;;
9117;SDS011;4594;50.994;7.126;2023-03-01T04:15:09;9.30;;;8.38;;
9117;SDS011;4594;50.994;7.126;2023-03-01T04:17:43;8.32;;;7.53;;
9117;SDS011;4594;50.994;7.126;2023-03-01T04:20:11;8.32;;;7.55;;
9117;SDS011;4594;50.994;7.126;2023-03-01T04:23:01;8.27;;;7.47;;
9117;SDS011;4594;50.994;7.126;2023-03-01T04:25:57;8.15;;;7.45;;
9117;SDS011;4594;50.994;7.126;2023-03-01T04:31:08;7.90;;;7.10;;
9117;SDS011;4594;50.994;7.126;2023-03-01T04:36:21;9.02;;;7.50;;
9117;SDS011;4594;50.994;7.126;2023-03-01T04:38:50;8.48;;;7.25;;
9117;SDS011;4594;50.994;7.126;2023-03-01T04:41:17;10.25;;;7.38;;
9117;SDS011;4594;50.994;7.126;2023-03-01T04:43:46;8.85;;;7.95;;
9117;SDS011;4594;50.994;7.126;2023-03-01T04:46:15;11.23;;;8.07;;
9117;SDS011;4594;50.994;7.126;2023-03-01T04:48:43;8.85;;;7.88;;
9117;SDS011;4594;50.994;7.126;2023-03-01T04:51:11;8.20;;;7.40;;
9117;SDS011;4594;50.994;7.126;2023-03-01T04:53:41;8.75;;;7.78;;
9117;SDS011;4594;50.994;7.126;2023-03-01T04:56:08;11.43;;;8.65;;
9117;SDS011;4594;50.994;7.126;2023-03-01T04:58:34;9.77;;;8.30;;
9117;SDS011;4594;50.994;7.126;2023-03-01T05:01:00;9.15;;;7.70;;
9117;SDS011;4594;50.994;7.126;2023-03-01T05:03:26;9.83;;;8.40;;
9117;SDS011;4594;50.994;7.126;2023-03-01T05:05:53;11.65;;;8.93;;
9117;SDS011;4594;50.994;7.126;2023-03-01T05:08:18;13.07;;;8.50;;
9117;SDS011;4594;50.994;7.126;2023-03-01T05:10:46;11.95;;;8.50;;
9117;SDS011;4594;50.994;7.126;2023-03-01T05:13:16;10.63;;;8.23;;
9117;SDS011;4594;50.994;7.126;2023-03-01T05:15:53;13.43;;;9.60;;
9117;SDS011;4594;50.994;7.126;2023-03-01T05:18:25;17.60;;;11.10;;
9117;SDS011;4594;50.994;7.126;2023-03-01T05:20:56;24.17;;;14.80;;
9117;SDS011;4594;50.994;7.126;2023-03-01T05:23:32;19.52;;;11.10;;
9117;SDS011;4594;50.994;7.126;2023-03-01T05:25:59;14.77;;;9.68;;
9117;SDS011;4594;50.994;7.126;2023-03-01T05:28:28;11.70;;;8.85;;
9117;SDS011;4594;50.994;7.126;2023-03-01T05:30:55;11.35;;;8.85;;
9117;SDS011;4594;50.994;7.126;2023-03-01T05:33:23;10.93;;;9.48;;
9117;SDS011;4594;50.994;7.126;2023-03-01T05:35:50;10.52;;;8.93;;
9117;SDS011;4594;50.994;7.126;2023-03-01T05:38:17;9.07;;;8.18;;
9117;SDS011;4594;50.994;7.126;2023-03-01T05:40:45;9.27;;;8.38;;
9117;SDS011;4594;50.994;7.126;2023-03-01T05:43:14;11.85;;;8.35;;
9117;SDS011;4594;50.994;7.126;2023-03-01T05:45:42;10.48;;;8.65;;
9117;SDS011;4594;50.994;7.126;2023-03-01T05:48:08;11.35;;;8.48;;
9117;SDS011;4594;50.994;7.126;2023-03-01T05:50:37;9.63;;;8.60;;
9117;SDS011;4594;50.994;7.126;2023-03-01T05:53:07;11.20;;;9.27;;
9117;SDS011;4594;50.994;7.126;2023-03-01T05:55:41;10.60;;;8.43;;
9117;SDS011;4594;50.994;7.126;2023-03-01T05:58:10;11.73;;;8.52;;
9117;SDS011;4594;50.994;7.126;2023-03-01T06:00:42;11.63;;;8.68;;
9117;SDS011;4594;50.994;7.126;2023-03-01T06:03:10;12.85;;;8.80;;
9117;SDS011;4594;50.994;7.126;2023-03-01T06:05:38;9.03;;;8.10;;
9117;SDS011;4594;50.994;7.126;2023-03-01T06:08:05;10.32;;;9.02;;
9117;SDS011;4594;50.994;7.126;2023-03-01T06:10:31;10.40;;;8.10;;
9117;SDS011;4594;50.994;7.126;2023-03-01T06:12:57;9.75;;;8.70;;
9117;SDS011;4594;50.994;7.126;2023-03-01T06:15:24;12.37;;;9.10;;
9117;SDS011;4594;50.994;7.126;2023-03-01T06:17:50;9.50;;;8.60;;
9117;SDS011;4594;50.994;7.126;2023-03-01T06:20:20;11.53;;;8.50;;
9117;SDS011;4594;50.994;7.126;2023-03-01T06:22:49;9.43;;;8.03;;
9117;SDS011;4594;50.994;7.126;2023-03-01T06:25:16;8.85;;;8.00;;
9117;SDS011;4594;50.994;7.126;2023-03-01T06:27:45;10.57;;;8.37;;
9117;SDS011;4594;50.994;7.126;2023-03-01T06:30:12;12.47;;;9.53;;
9117;SDS011;4594;50.994;7.126;2023-03-01T06:32:40;13.30;;;9.67;;
9117;SDS011;4594;50.994;7.126;2023-03-01T06:35:13;21.57;;;13.33;;
9117;SDS011;4594;50.994;7.126;2023-03-01T06:37:42;18.57;;;11.37;;
9117;SDS011;4594;50.994;7.126;2023-03-01T06:40:09;13.20;;;10.03;;
9117;SDS011;4594;50.994;7.126;2023-03-01T06:42:37;15.47;;;10.27;;
9117;SDS011;4594;50.994;7.126;2023-03-01T06:45:05;14.93;;;11.03;;
9117;SDS011;4594;50.994;7.126;2023-03-01T06:47:32;13.33;;;9.97;;
9117;SDS011;4594;50.994;7.126;2023-03-01T06:50:01;15.77;;;10.00;;
9117;SDS011;4594;50.994;7.126;2023-03-01T06:52:28;11.27;;;8.93;;
9117;SDS011;4594;50.994;7.126;2023-03-01T06:54:54;9.50;;;8.47;;
9117;SDS011;4594;50.994;7.126;2023-03-01T06:57:20;8.67;;;7.77;;
9117;SDS011;4594;50.994;7.126;2023-03-01T06:59:46;9.27;;;8.23;;
9117;SDS011;4594;50.994;7.126;2023-03-01T07:02:13;8.43;;;7.63;;
9117;SDS011;4594;50.994;7.126;2023-03-01T07:04:40;9.50;;;8.07;;
9117;SDS011;4594;50.994;7.126;2023-03-01T07:07:06;9.90;;;8.67;;
9117;SDS011;4594;50.994;7.126;2023-03-01T07:09:32;10.93;;;8.27;;
9117;SDS011;4594;50.994;7.126;2023-03-01T07:11:58;10.43;;;8.20;;
9117;SDS011;4594;50.994;7.126;2023-03-01T07:14:24;10.27;;;8.53;;
9117;SDS011;4594;50.994;7.126;2023-03-01T07:16:51;12.47;;;9.80;;
9117;SDS011;4594;50.994;7.126;2023-03-01T07:19:17;14.83;;;10.47;;
9117;SDS011;4594;50.994;7.126;2023-03-01T07:21:43;13.00;;;9.73;;
9117;SDS011;4594;50.994;7.126;2023-03-01T07:24:09;14.10;;;9.93;;
9117;SDS011;4594;50.994;7.126;2023-03-01T07:26:35;18.10;;;11.87;;
9117;SDS011;4594;50.994;7.126;2023-03-01T07:29:05;15.00;;;11.43;;
9117;SDS011;4594;50.994;7.126;2023-03-01T07:31:33;16.33;;;11.30;;
9117;SDS011;4594;50.994;7.126;2023-03-01T07:33:59;14.47;;;10.40;;
9117;SDS011;4594;50.994;7.126;2023-03-01T07:36:25;11.93;;;9.60;;
9117;SDS011;4594;50.994;7.126;2023-03-01T07:38:50;10.90;;;8.83;;
9117;SDS011;4594;50.994;7.126;2023-03-01T07:41:20;13.23;;;10.37;;
9117;SDS011;4594;50.994;7.126;2023-03-01T07:43:46;19.33;;;12.57;;
9117;SDS011;4594;50.994;7.126;2023-03-01T07:46:11;31.33;;;17.73;;
9117;SDS011;4594;50.994;7.126;2023-03-01T07:48:37;22.63;;;13.77;;
9117;SDS011;4594;50.994;7.126;2023-03-01T07:51:04;18.43;;;12.00;;
9117;SDS011;4594;50.994;7.126;2023-03-01T07:53:31;17.23;;;10.63;;
9117;SDS011;4594;50.994;7.126;2023-03-01T07:56:01;13.30;;;10.17;;
9117;SDS011;4594;50.994;7.126;2023-03-01T07:58:39;11.07;;;8.53;;
9117;SDS011;4594;50.994;7.126;2023-03-01T08:01:08;14.33;;;8.30;;
9117;SDS011;4594;50.994;7.126;2023-03-01T08:03:40;12.73;;;9.37;;
9117;SDS011;4594;50.994;7.126;2023-03-01T08:06:08;17.60;;;9.97;;
9117;SDS011;4594;50.994;7.126;2023-03-01T08:08:35;14.57;;;8.60;;
9117;SDS011;4594;50.994;7.126;2023-03-01T08:11:03;18.30;;;11.10;;
9117;SDS011;4594;50.994;7.126;2023-03-01T08:13:31;20.10;;;11.53;;
9117;SDS011;4594;50.994;7.126;2023-03-01T08:16:02;13.70;;;8.73;;
9117;SDS011;4594;50.994;7.126;2023-03-01T08:18:29;13.10;;;7.90;;
9117;SDS011;4594;50.994;7.126;2023-03-01T08:20:55;9.43;;;7.63;;
9117;SDS011;4594;50.994;7.126;2023-03-01T08:23:25;7.40;;;6.63;;
9117;SDS011;4594;50.994;7.126;2023-03-01T08:25:51;10.23;;;7.10;;
9117;SDS011;4594;50.994;7.126;2023-03-01T08:28:17;7.70;;;6.60;;
9117;SDS011;4594;50.994;7.126;2023-03-01T08:30:43;7.10;;;6.40;;
9117;SDS011;4594;50.994;7.126;2023-03-01T08:33:09;8.20;;;7.17;;
9117;SDS011;4594;50.994;7.126;2023-03-01T08:35:34;7.77;;;6.63;;
9117;SDS011;4594;50.994;7.126;2023-03-01T08:38:00;8.97;;;6.30;;
9117;SDS011;4594;50.994;7.126;2023-03-01T08:40:26;7.13;;;5.77;;
9117;SDS011;4594;50.994;7.126;2023-03-01T08:42:51;11.47;;;6.90;;
9117;SDS011;4594;50.994;7.126;2023-03-01T08:45:18;8.40;;;6.33;;
9117;SDS011;4594;50.994;7.126;2023-03-01T08:47:44;9.20;;;6.73;;
9117;SDS011;4594;50.994;7.126;2023-03-01T08:50:10;7.07;;;6.40;;
9117;SDS011;4594;50.994;7.126;2023-03-01T08:52:36;6.70;;;6.00;;
9117;SDS011;4594;50.994;7.126;2023-03-01T08:55:01;8.37;;;6.27;;
9117;SDS011;4594;50.994;7.126;2023-03-01T08:57:27;7.63;;;6.33;;
9117;SDS011;4594;50.994;7.126;2023-03-01T08:59:53;8.47;;;6.30;;
9117;SDS011;4594;50.994;7.126;2023-03-01T09:02:21;7.93;;;5.40;;
9117;SDS011;4594;50.994;7.126;2023-03-01T09:04:47;7.17;;;5.73;;
9117;SDS011;4594;50.994;7.126;2023-03-01T09:07:12;6.13;;;5.30;;
9117;SDS011;4594;50.994;7.126;2023-03-01T09:09:38;7.73;;;6.33;;
9117;SDS011;4594;50.994;7.126;2023-03-01T09:12:04;7.53;;;5.53;;
9117;SDS011;4594;50.994;7.126;2023-03-01T09:14:30;6.10;;;5.27;;
9117;SDS011;4594;50.994;7.126;2023-03-01T09:16:56;8.40;;;5.87;;
9117;SDS011;4594;50.994;7.126;2023-03-01T09:19:21;20.73;;;5.80;;
9117;SDS011;4594;50.994;7.126;2023-03-01T09:21:47;6.10;;;5.13;;
9117;SDS011;4594;50.994;7.126;2023-03-01T09:24:21;8.20;;;6.10;;
9117;SDS011;4594;50.994;7.126;2023-03-01T09:26:49;6.43;;;5.20;;
9117;SDS011;4594;50.994;7.126;2023-03-01T09:29:17;7.33;;;5.63;;
9117;SDS011;4594;50.994;7.126;2023-03-01T09:31:43;5.97;;;5.37;;
9117;SDS011;4594;50.994;7.126;2023-03-01T09:34:09;7.70;;;5.57;;
9117;SDS011;4594;50.994;7.126;2023-03-01T09:36:35;6.33;;;4.50;;
9117;SDS011;4594;50.994;7.126;2023-03-01T09:39:02;5.17;;;4.67;;
9117;SDS011;4594;50.994;7.126;2023-03-01T09:47:09;5.73;;;5.13;;
9117;SDS011;4594;50.994;7.126;2023-03-01T09:49:44;4.77;;;4.37;;
9117;SDS011;4594;50.994;7.126;2023-03-01T09:55:49;6.00;;;5.00;;
9117;SDS011;4594;50.994;7.126;2023-03-01T09:58:28;5.73;;;4.13;;
9117;SDS011;4594;50.994;7.126;2023-03-01T10:06:29;5.27;;;4.60;;
9117;SDS011;4594;50.994;7.126;2023-03-01T10:09:00;6.97;;;4.87;;
9117;SDS011;4594;50.994;7.126;2023-03-01T10:11:41;5.70;;;4.33;;
9117;SDS011;4594;50.994;7.126;2023-03-01T10:14:22;5.93;;;4.63;;
9117;SDS011;4594;50.994;7.126;2023-03-01T10:17:12;4.97;;;4.27;;
9117;SDS011;4594;50.994;7.126;2023-03-01T10:20:22;5.37;;;4.60;;
9117;SDS011;4594;50.994;7.126;2023-03-01T10:22:51;4.87;;;3.87;;
9117;SDS011;4594;50.994;7.126;2023-03-01T10:25:36;5.83;;;4.43;;
9117;SDS011;4594;50.994;7.126;2023-03-01T10:29:10;5.00;;;4.50;;
9117;SDS011;4594;50.994;7.126;2023-03-01T10:31:42;5.50;;;4.43;;
9117;SDS011;4594;50.994;7.126;2023-03-01T10:34:17;5.30;;;4.27;;
9117;SDS011;4594;50.994;7.126;2023-03-01T10:36:52;5.43;;;4.43;;
9117;SDS011;4594;50.994;7.126;2023-03-01T10:39:25;4.67;;;4.27;;
9117;SDS011;4594;50.994;7.126;2023-03-01T10:41:56;5.13;;;4.63;;
9117;SDS011;4594;50.994;7.126;2023-03-01T10:44:35;6.70;;;4.13;;
9117;SDS011;4594;50.994;7.126;2023-03-01T10:47:13;4.83;;;4.27;;
9117;SDS011;4594;50.994;7.126;2023-03-01T10:49:53;5.53;;;4.93;;
9117;SDS011;4594;50.994;7.126;2023-03-01T10:52:32;7.57;;;4.57;;
9117;SDS011;4594;50.994;7.126;2023-03-01T10:55:21;6.43;;;4.50;;
9117;SDS011;4594;50.994;7.126;2023-03-01T11:00:57;5.43;;;4.60;;
9117;SDS011;4594;50.994;7.126;2023-03-01T11:04:03;5.13;;;4.67;;
9117;SDS011;4594;50.994;7.126;2023-03-01T11:06:38;6.57;;;5.27;;
9117;SDS011;4594;50.994;7.126;2023-03-01T11:09:15;7.67;;;5.90;;
9117;SDS011;4594;50.994;7.126;2023-03-01T11:11:53;7.23;;;6.03;;
9117;SDS011;4594;50.994;7.126;2023-03-01T11:14:25;8.10;;;5.70;;
9117;SDS011;4594;50.994;7.126;2023-03-01T11:17:02;6.87;;;5.60;;
9117;SDS011;4594;50.994;7.126;2023-03-01T11:22:49;7.17;;;5.93;;
9117;SDS011;4594;50.994;7.126;2023-03-01T11:25:24;5.70;;;5.13;;
9117;SDS011;4594;50.994;7.126;2023-03-01T11:28:04;7.63;;;5.43;;
9117;SDS011;4594;50.994;7.126;2023-03-01T11:30:34;6.87;;;5.57;;
9117;SDS011;4594;50.994;7.126;2023-03-01T11:33:16;6.23;;;5.63;;
9117;SDS011;4594;50.994;7.126;2023-03-01T11:36:03;6.17;;;5.53;;
9117;SDS011;4594;50.994;7.126;2023-03-01T11:38:32;8.23;;;5.30;;
9117;SDS011;4594;50.994;7.126;2023-03-01T11:41:04;7.47;;;6.10;;
9117;SDS011;4594;50.994;7.126;2023-03-01T11:43:44;7.70;;;5.73;;
9117;SDS011;4594;50.994;7.126;2023-03-01T11:47:13;6.63;;;5.83;;
9117;SDS011;4594;50.994;7.126;2023-03-01T11:50:07;8.90;;;5.90;;
9117;SDS011;4594;50.994;7.126;2023-03-01T12:08:16;6.97;;;5.77;;
9117;SDS011;4594;50.994;7.126;2023-03-01T12:11:14;8.43;;;5.23;;
9117;SDS011;4594;50.994;7.126;2023-03-01T12:20:30;6.00;;;5.40;;
9117;SDS011;4594;50.994;7.126;2023-03-01T12:25:52;7.27;;;6.00;;
9117;SDS011;4594;50.994;7.126;2023-03-01T12:37:06;7.57;;;5.60;;
9117;SDS011;4594;50.994;7.126;2023-03-01T12:40:00;8.30;;;6.17;;
9117;SDS011;4594;50.994;7.126;2023-03-01T12:46:02;6.43;;;5.47;;
9117;SDS011;4594;50.994;7.126;2023-03-01T12:51:40;5.67;;;5.10;;
9117;SDS011;4594;50.994;7.126;2023-03-01T12:54:20;10.70;;;6.20;;
9117;SDS011;4594;50.994;7.126;2023-03-01T12:56:53;9.17;;;5.43;;
9117;SDS011;4594;50.994;7.126;2023-03-01T13:05:00;8.80;;;5.93;;
9117;SDS011;4594;50.994;7.126;2023-03-01T13:10:42;9.17;;;6.40;;
9117;SDS011;4594;50.994;7.126;2023-03-01T13:15:51;8.83;;;6.10;;
9117;SDS011;4594;50.994;7.126;2023-03-01T13:33:51;5.90;;;5.40;;
9117;SDS011;4594;50.994;7.126;2023-03-01T13:46:58;5.97;;;5.37;;
9117;SDS011;4594;50.994;7.126;2023-03-01T13:52:32;6.63;;;5.93;;
9117;SDS011;4594;50.994;7.126;2023-03-01T13:55:37;7.40;;;5.97;;
9117;SDS011;4594;50.994;7.126;2023-03-01T13:58:16;6.23;;;5.20;;
9117;SDS011;4594;50.994;7.126;2023-03-01T14:00:55;8.00;;;5.97;;
9117;SDS011;4594;50.994;7.126;2023-03-01T14:03:23;6.50;;;5.80;;
9117;SDS011;4594;50.994;7.126;2023-03-01T14:06:06;7.60;;;5.43;;
9117;SDS011;4594;50.994;7.126;2023-03-01T14:08:36;6.23;;;5.63;;
9117;SDS011;4594;50.994;7.126;2023-03-01T14:20:00;5.90;;;5.33;;
9117;SDS011;4594;50.994;7.126;2023-03-01T14:22:40;7.77;;;6.30;;
9117;SDS011;4594;50.994;7.126;2023-03-01T14:25:20;6.10;;;5.50;;
9117;SDS011;4594;50.994;7.126;2023-03-01T14:28:32;7.50;;;5.90;;
9117;SDS011;4594;50.994;7.126;2023-03-01T14:30:44;6.17;;;5.53;;
9117;SDS011;4594;50.994;7.126;2023-03-01T14:33:29;9.47;;;6.40;;
9117;SDS011;4594;50.994;7.126;2023-03-01T14:36:02;6.27;;;5.70;;
9117;SDS011;4594;50.994;7.126;2023-03-01T14:38:39;6.43;;;5.77;;
9117;SDS011;4594;50.994;7.126;2023-03-01T14:41:12;7.83;;;6.17;;
9117;SDS011;4594;50.994;7.126;2023-03-01T14:43:51;7.70;;;5.83;;
9117;SDS011;4594;50.994;7.126;2023-03-01T14:46:27;6.90;;;6.20;;
9117;SDS011;4594;50.994;7.126;2023-03-01T14:52:07;5.90;;;5.33;;
9117;SDS011;4594;50.994;7.126;2023-03-01T14:54:46;7.50;;;6.70;;
9117;SDS011;4594;50.994;7.126;2023-03-01T14:57:21;8.27;;;6.60;;
9117;SDS011;4594;50.994;7.126;2023-03-01T14:59:50;14.17;;;5.87;;
9117;SDS011;4594;50.994;7.126;2023-03-01T15:02:24;8.20;;;6.40;;
9117;SDS011;4594;50.994;7.126;2023-03-01T15:04:52;7.97;;;6.37;;
9117;SDS011;4594;50.994;7.126;2023-03-01T15:07:22;10.70;;;6.73;;
9117;SDS011;4594;50.994;7.126;2023-03-01T15:09:56;7.83;;;6.40;;
9117;SDS011;4594;50.994;7.126;2023-03-01T15:14:52;6.67;;;5.90;;
9117;SDS011;4594;50.994;7.126;2023-03-01T15:17:31;8.90;;;6.37;;
9117;SDS011;4594;50.994;7.126;2023-03-01T15:20:14;7.40;;;6.33;;
9117;SDS011;4594;50.994;7.126;2023-03-01T15:22:45;9.70;;;7.17;;
9117;SDS011;4594;50.994;7.126;2023-03-01T15:25:15;8.67;;;6.60;;
9117;SDS011;4594;50.994;7.126;2023-03-01T15:27:49;9.93;;;6.80;;
9117;SDS011;4594;50.994;7.126;2023-03-01T15:30:20;10.50;;;6.17;;
9117;SDS011;4594;50.994;7.126;2023-03-01T15:33:18;7.00;;;5.90;;
9117;SDS011;4594;50.994;7.126;2023-03-01T15:35:54;7.37;;;6.47;;
9117;SDS011;4594;50.994;7.126;2023-03-01T15:41:52;6.87;;;6.17;;
9117;SDS011;4594;50.994;7.126;2023-03-01T15:44:29;6.90;;;5.90;;
9117;SDS011;4594;50.994;7.126;2023-03-01T15:46:59;7.40;;;6.00;;
9117;SDS011;4594;50.994;7.126;2023-03-01T15:49:38;7.27;;;6.40;;
9117;SDS011;4594;50.994;7.126;2023-03-01T15:52:12;6.90;;;5.60;;
9117;SDS011;4594;50.994;7.126;2023-03-01T15:54:54;7.13;;;5.57;;
9117;SDS011;4594;50.994;7.126;2023-03-01T15:57:22;9.13;;;7.00;;
9117;SDS011;4594;50.994;7.126;2023-03-01T15:59:48;10.40;;;6.10;;
9117;SDS011;4594;50.994;7.126;2023-03-01T16:02:14;5.90;;;5.30;;
9117;SDS011;4594;50.994;7.126;2023-03-01T16:04:39;6.17;;;5.57;;
9117;SDS011;4594;50.994;7.126;2023-03-01T16:07:06;7.00;;;5.13;;
9117;SDS011;4594;50.994;7.126;2023-03-01T16:09:33;9.53;;;5.87;;
9117;SDS011;4594;50.994;7.126;2023-03-01T16:11:58;8.23;;;5.97;;
9117;SDS011;4594;50.994;7.126;2023-03-01T16:14:24;7.97;;;5.40;;
9117;SDS011;4594;50.994;7.126;2023-03-01T16:16:50;8.47;;;5.77;;
9117;SDS011;4594;50.994;7.126;2023-03-01T16:19:15;10.20;;;6.60;;
9117;SDS011;4594;50.994;7.126;2023-03-01T16:21:42;11.70;;;7.10;;
9117;SDS011;4594;50.994;7.126;2023-03-01T16:24:08;15.03;;;7.63;;
9117;SDS011;4594;50.994;7.126;2023-03-01T16:26:35;12.93;;;7.23;;
9117;SDS011;4594;50.994;7.126;2023-03-01T16:29:02;10.73;;;6.63;;
9117;SDS011;4594;50.994;7.126;2023-03-01T16:31:28;6.97;;;5.73;;
9117;SDS011;4594;50.994;7.126;2023-03-01T16:33:54;26.07;;;10.80;;
9117;SDS011;4594;50.994;7.126;2023-03-01T16:36:22;13.03;;;8.20;;
9117;SDS011;4594;50.994;7.126;2023-03-01T16:38:53;10.53;;;7.13;;
9117;SDS011;4594;50.994;7.126;2023-03-01T16:41:23;12.03;;;7.50;;
9117;SDS011;4594;50.994;7.126;2023-03-01T16:43:49;8.47;;;6.30;;
9117;SDS011;4594;50.994;7.126;2023-03-01T16:46:17;8.50;;;6.40;;
9117;SDS011;4594;50.994;7.126;2023-03-01T16:48:53;7.40;;;5.83;;
9117;SDS011;4594;50.994;7.126;2023-03-01T16:51:20;8.87;;;6.90;;
9117;SDS011;4594;50.994;7.126;2023-03-01T16:53:47;6.57;;;5.87;;
9117;SDS011;4594;50.994;7.126;2023-03-01T16:56:14;7.93;;;5.87;;
9117;SDS011;4594;50.994;7.126;2023-03-01T16:58:41;7.23;;;5.97;;
9117;SDS011;4594;50.994;7.126;2023-03-01T17:01:13;13.20;;;9.40;;
9117;SDS011;4594;50.994;7.126;2023-03-01T17:03:45;13.77;;;8.83;;
9117;SDS011;4594;50.994;7.126;2023-03-01T17:06:15;9.77;;;6.80;;
9117;SDS011;4594;50.994;7.126;2023-03-01T17:08:45;11.83;;;8.50;;
9117;SDS011;4594;50.994;7.126;2023-03-01T17:11:12;14.00;;;8.07;;
9117;SDS011;4594;50.994;7.126;2023-03-01T17:13:41;10.37;;;7.97;;
9117;SDS011;4594;50.994;7.126;2023-03-01T17:16:09;11.50;;;7.97;;
9117;SDS011;4594;50.994;7.126;2023-03-01T17:18:37;16.37;;;8.83;;
9117;SDS011;4594;50.994;7.126;2023-03-01T17:21:04;8.87;;;6.90;;
9117;SDS011;4594;50.994;7.126;2023-03-01T17:23:32;9.87;;;7.23;;
9117;SDS011;4594;50.994;7.126;2023-03-01T17:25:59;7.50;;;6.33;;
9117;SDS011;4594;50.994;7.126;2023-03-01T17:28:26;8.53;;;6.00;;
9117;SDS011;4594;50.994;7.126;2023-03-01T17:30:54;9.77;;;5.73;;
9117;SDS011;4594;50.994;7.126;2023-03-01T17:33:20;6.10;;;5.57;;
9117;SDS011;4594;50.994;7.126;2023-03-01T17:35:47;6.27;;;5.67;;
9117;SDS011;4594;50.994;7.126;2023-03-01T17:38:13;7.30;;;6.30;;
9117;SDS011;4594;50.994;7.126;2023-03-01T17:40:40;8.67;;;6.47;;
9117;SDS011;4594;50.994;7.126;2023-03-01T17:43:10;6.83;;;6.13;;
9117;SDS011;4594;50.994;7.126;2023-03-01T17:45:36;9.57;;;5.50;;
9117;SDS011;4594;50.994;7.126;2023-03-01T17:48:04;8.33;;;5.97;;
9117;SDS011;4594;50.994;7.126;2023-03-01T17:50:31;8.73;;;6.20;;